sensor_id;sensor_type;location;lat;lon;timestamp;P1;durP1;ratioP1;P2;durP2;ratioP2
53890;SDS011;41337;51.400;-2.342;2022-12-11T00:03:53;80.93;;;18.10;;
53890;SDS011;41337;51.400;-2.342;2022-12-11T00:08:54;78.55;;;17.90;;
53890;SDS011;41337;51.400;-2.342;2022-12-11T00:13:55;60.67;;;17.60;;
53890;SDS011;41337;51.400;-2.342;2022-12-11T00:18:55;49.83;;;18.58;;
53890;SDS011;41337;51.400;-2.342;2022-12-11T00:23:56;55.45;;;18.45;;
53890;SDS011;41337;51.400;-2.342;2022-12-11T00:28:57;53.83;;;18.05;;
53890;SDS011;41337;51.400;-2.342;2022-12-11T00:33:59;53.90;;;17.80;;
53890;SDS011;41337;51.400;-2.342;2022-12-11T00:39:01;53.20;;;19.23;;
53890;SDS011;41337;51.400;-2.342;2022-12-11T00:44:05;64.85;;;20.38;;
53890;SDS011;41337;51.400;-2.342;2022-12-11T00:49:06;62.20;;;20.60;;
53890;SDS011;41337;51.400;-2.342;2022-12-11T00:54:07;56.15;;;19.45;;
53890;SDS011;41337;51.400;-2.342;2022-12-11T00:59:08;52.58;;;19.02;;
53890;SDS011;41337;51.400;-2.342;2022-12-11T01:04:09;45.25;;;17.23;;
53890;SDS011;41337;51.400;-2.342;2022-12-11T01:09:09;63.53;;;19.33;;
53890;SDS011;41337;51.400;-2.342;2022-12-11T01:14:29;63.42;;;19.95;;
53890;SDS011;41337;51.400;-2.342;2022-12-11T01:19:30;47.53;;;19.08;;
53890;SDS011;41337;51.400;-2.342;2022-12-11T01:24:31;49.10;;;18.10;;
53890;SDS011;41337;51.400;-2.342;2022-12-11T01:29:32;59.00;;;18.85;;
53890;SDS011;41337;51.400;-2.342;2022-12-11T01:34:33;58.38;;;18.73;;
53890;SDS011;41337;51.400;-2.342;2022-12-11T01:39:34;46.75;;;17.90;;
53890;SDS011;41337;51.400;-2.342;2022-12-11T01:49:44;45.75;;;17.70;;
53890;SDS011;41337;51.400;-2.342;2022-12-11T01:54:45;51.78;;;18.65;;
53890;SDS011;41337;51.400;-2.342;2022-12-11T01:59:47;52.35;;;17.80;;
53890;SDS011;41337;51.400;-2.342;2022-12-11T02:04:48;53.38;;;19.10;;
53890;SDS011;41337;51.400;-2.342;2022-12-11T02:09:49;62.22;;;18.42;;
53890;SDS011;41337;51.400;-2.342;2022-12-11T03:11:26;46.28;;;17.00;;
53890;SDS011;41337;51.400;-2.342;2022-12-11T03:16:35;46.72;;;16.48;;
53890;SDS011;41337;51.400;-2.342;2022-12-11T03:27:06;59.50;;;16.80;;
53890;SDS011;41337;51.400;-2.342;2022-12-11T03:32:24;42.40;;;14.20;;
53890;SDS011;41337;51.400;-2.342;2022-12-11T03:37:33;39.00;;;15.90;;
53890;SDS011;41337;51.400;-2.342;2022-12-11T03:42:45;33.83;;;15.67;;
53890;SDS011;41337;51.400;-2.342;2022-12-11T03:47:55;30.95;;;14.07;;
53890;SDS011;41337;51.400;-2.342;2022-12-11T03:53:05;35.53;;;16.05;;
53890;SDS011;41337;51.400;-2.342;2022-12-11T03:58:07;38.95;;;16.10;;
53890;SDS011;41337;51.400;-2.342;2022-12-11T04:03:08;35.97;;;15.95;;
53890;SDS011;41337;51.400;-2.342;2022-12-11T04:08:16;31.33;;;15.07;;
53890;SDS011;41337;51.400;-2.342;2022-12-11T04:19:05;34.88;;;14.10;;
53890;SDS011;41337;51.400;-2.342;2022-12-11T04:24:31;29.73;;;14.90;;
53890;SDS011;41337;51.400;-2.342;2022-12-11T04:29:32;29.83;;;14.73;;
53890;SDS011;41337;51.400;-2.342;2022-12-11T04:34:33;30.02;;;13.43;;
53890;SDS011;41337;51.400;-2.342;2022-12-11T04:39:34;34.10;;;15.80;;
53890;SDS011;41337;51.400;-2.342;2022-12-11T04:44:35;26.67;;;14.10;;
53890;SDS011;41337;51.400;-2.342;2022-12-11T04:49:35;31.58;;;14.20;;
53890;SDS011;41337;51.400;-2.342;2022-12-11T04:54:36;40.70;;;17.77;;
53890;SDS011;41337;51.400;-2.342;2022-12-11T04:59:37;42.83;;;18.15;;
53890;SDS011;41337;51.400;-2.342;2022-12-11T05:04:38;36.45;;;17.20;;
53890;SDS011;41337;51.400;-2.342;2022-12-11T05:09:39;31.10;;;14.10;;
53890;SDS011;41337;51.400;-2.342;2022-12-11T05:14:40;31.52;;;14.45;;
53890;SDS011;41337;51.400;-2.342;2022-12-11T05:19:40;33.22;;;15.52;;
53890;SDS011;41337;51.400;-2.342;2022-12-11T05:24:41;35.95;;;15.63;;
53890;SDS011;41337;51.400;-2.342;2022-12-11T05:29:42;32.63;;;14.60;;
53890;SDS011;41337;51.400;-2.342;2022-12-11T05:34:43;27.15;;;12.90;;
53890;SDS011;41337;51.400;-2.342;2022-12-11T05:39:44;36.15;;;15.20;;
53890;SDS011;41337;51.400;-2.342;2022-12-11T05:44:44;32.28;;;13.95;;
53890;SDS011;41337;51.400;-2.342;2022-12-11T05:49:45;34.50;;;15.32;;
53890;SDS011;41337;51.400;-2.342;2022-12-11T05:54:47;30.20;;;15.07;;
53890;SDS011;41337;51.400;-2.342;2022-12-11T05:59:52;35.25;;;14.75;;
53890;SDS011;41337;51.400;-2.342;2022-12-11T06:04:53;32.05;;;14.85;;
53890;SDS011;41337;51.400;-2.342;2022-12-11T06:09:54;30.17;;;14.38;;
53890;SDS011;41337;51.400;-2.342;2022-12-11T06:14:55;29.73;;;13.70;;
53890;SDS011;41337;51.400;-2.342;2022-12-11T06:19:56;32.15;;;13.95;;
53890;SDS011;41337;51.400;-2.342;2022-12-11T06:24:57;29.73;;;13.98;;
53890;SDS011;41337;51.400;-2.342;2022-12-11T06:29:58;28.88;;;14.35;;
53890;SDS011;41337;51.400;-2.342;2022-12-11T06:34:59;28.52;;;14.18;;
53890;SDS011;41337;51.400;-2.342;2022-12-11T06:39:59;35.58;;;16.08;;
53890;SDS011;41337;51.400;-2.342;2022-12-11T06:45:00;33.40;;;16.17;;
53890;SDS011;41337;51.400;-2.342;2022-12-11T06:50:01;29.05;;;14.90;;
53890;SDS011;41337;51.400;-2.342;2022-12-11T06:55:03;28.70;;;14.23;;
53890;SDS011;41337;51.400;-2.342;2022-12-11T07:00:04;28.73;;;13.35;;
53890;SDS011;41337;51.400;-2.342;2022-12-11T07:05:05;27.65;;;12.77;;
53890;SDS011;41337;51.400;-2.342;2022-12-11T07:10:07;26.20;;;12.40;;
53890;SDS011;41337;51.400;-2.342;2022-12-11T07:15:09;29.23;;;14.10;;
53890;SDS011;41337;51.400;-2.342;2022-12-11T07:20:10;29.90;;;14.07;;
53890;SDS011;41337;51.400;-2.342;2022-12-11T07:25:14;27.92;;;13.30;;
53890;SDS011;41337;51.400;-2.342;2022-12-11T07:30:15;27.08;;;13.23;;
53890;SDS011;41337;51.400;-2.342;2022-12-11T07:35:16;35.03;;;15.57;;
53890;SDS011;41337;51.400;-2.342;2022-12-11T07:40:17;43.92;;;18.17;;
53890;SDS011;41337;51.400;-2.342;2022-12-11T07:45:18;40.00;;;17.55;;
53890;SDS011;41337;51.400;-2.342;2022-12-11T07:50:18;40.70;;;17.48;;
53890;SDS011;41337;51.400;-2.342;2022-12-11T07:55:19;42.03;;;18.13;;
53890;SDS011;41337;51.400;-2.342;2022-12-11T08:00:20;36.83;;;17.25;;
53890;SDS011;41337;51.400;-2.342;2022-12-11T08:05:21;38.47;;;17.15;;
53890;SDS011;41337;51.400;-2.342;2022-12-11T08:10:22;36.38;;;15.98;;
53890;SDS011;41337;51.400;-2.342;2022-12-11T08:15:22;32.53;;;15.27;;
53890;SDS011;41337;51.400;-2.342;2022-12-11T08:20:23;32.47;;;16.25;;
53890;SDS011;41337;51.400;-2.342;2022-12-11T08:25:24;31.23;;;14.35;;
53890;SDS011;41337;51.400;-2.342;2022-12-11T08:30:25;31.33;;;14.77;;
53890;SDS011;41337;51.400;-2.342;2022-12-11T08:35:26;34.22;;;15.95;;
53890;SDS011;41337;51.400;-2.342;2022-12-11T08:40:26;34.30;;;15.55;;
53890;SDS011;41337;51.400;-2.342;2022-12-11T08:45:27;42.75;;;19.88;;
53890;SDS011;41337;51.400;-2.342;2022-12-11T08:50:28;43.70;;;19.88;;
53890;SDS011;41337;51.400;-2.342;2022-12-11T08:55:31;42.03;;;19.23;;
53890;SDS011;41337;51.400;-2.342;2022-12-11T09:00:32;46.40;;;19.25;;
53890;SDS011;41337;51.400;-2.342;2022-12-11T09:05:33;42.72;;;20.25;;
53890;SDS011;41337;51.400;-2.342;2022-12-11T09:10:34;42.60;;;20.83;;
53890;SDS011;41337;51.400;-2.342;2022-12-11T09:15:38;41.58;;;19.08;;
53890;SDS011;41337;51.400;-2.342;2022-12-11T09:20:42;40.90;;;19.73;;
53890;SDS011;41337;51.400;-2.342;2022-12-11T09:25:43;43.58;;;20.90;;
53890;SDS011;41337;51.400;-2.342;2022-12-11T09:30:44;45.50;;;20.90;;
53890;SDS011;41337;51.400;-2.342;2022-12-11T09:35:44;42.28;;;21.30;;
53890;SDS011;41337;51.400;-2.342;2022-12-11T09:40:45;48.10;;;22.65;;
53890;SDS011;41337;51.400;-2.342;2022-12-11T09:45:46;45.00;;;21.48;;
53890;SDS011;41337;51.400;-2.342;2022-12-11T09:50:49;54.63;;;25.40;;
53890;SDS011;41337;51.400;-2.342;2022-12-11T10:00:59;44.72;;;21.15;;
53890;SDS011;41337;51.400;-2.342;2022-12-11T10:11:36;47.38;;;23.25;;
53890;SDS011;41337;51.400;-2.342;2022-12-11T10:16:44;46.65;;;22.27;;
53890;SDS011;41337;51.400;-2.342;2022-12-11T10:21:53;53.13;;;24.33;;
53890;SDS011;41337;51.400;-2.342;2022-12-11T10:26:55;59.72;;;25.55;;
53890;SDS011;41337;51.400;-2.342;2022-12-11T10:31:59;52.60;;;24.00;;
53890;SDS011;41337;51.400;-2.342;2022-12-11T10:37:05;43.95;;;22.15;;
53890;SDS011;41337;51.400;-2.342;2022-12-11T10:42:16;43.95;;;21.13;;
53890;SDS011;41337;51.400;-2.342;2022-12-11T10:47:25;45.45;;;20.88;;
53890;SDS011;41337;51.400;-2.342;2022-12-11T10:52:28;51.00;;;22.88;;
53890;SDS011;41337;51.400;-2.342;2022-12-11T10:57:36;47.75;;;23.45;;
53890;SDS011;41337;51.400;-2.342;2022-12-11T11:02:38;41.60;;;19.63;;
53890;SDS011;41337;51.400;-2.342;2022-12-11T11:07:46;46.45;;;22.10;;
53890;SDS011;41337;51.400;-2.342;2022-12-11T11:12:47;41.92;;;20.33;;
53890;SDS011;41337;51.400;-2.342;2022-12-11T11:17:50;45.78;;;21.55;;
53890;SDS011;41337;51.400;-2.342;2022-12-11T11:22:59;41.38;;;20.08;;
53890;SDS011;41337;51.400;-2.342;2022-12-11T11:28:03;43.35;;;20.58;;
53890;SDS011;41337;51.400;-2.342;2022-12-11T11:33:18;46.75;;;22.13;;
53890;SDS011;41337;51.400;-2.342;2022-12-11T11:38:22;48.38;;;22.80;;
53890;SDS011;41337;51.400;-2.342;2022-12-11T11:43:35;52.55;;;24.35;;
53890;SDS011;41337;51.400;-2.342;2022-12-11T11:54:19;41.20;;;20.93;;
53890;SDS011;41337;51.400;-2.342;2022-12-11T11:59:55;43.95;;;21.70;;
53890;SDS011;41337;51.400;-2.342;2022-12-11T12:05:03;48.03;;;22.42;;
53890;SDS011;41337;51.400;-2.342;2022-12-11T12:15:44;45.00;;;20.08;;
53890;SDS011;41337;51.400;-2.342;2022-12-11T12:20:58;45.88;;;22.02;;
53890;SDS011;41337;51.400;-2.342;2022-12-11T12:26:30;49.00;;;22.50;;
53890;SDS011;41337;51.400;-2.342;2022-12-11T12:32:07;45.95;;;22.60;;
53890;SDS011;41337;51.400;-2.342;2022-12-11T12:42:40;41.50;;;21.08;;
53890;SDS011;41337;51.400;-2.342;2022-12-11T12:48:03;43.65;;;21.08;;
53890;SDS011;41337;51.400;-2.342;2022-12-11T12:53:13;44.55;;;21.77;;
53890;SDS011;41337;51.400;-2.342;2022-12-11T12:58:24;37.63;;;18.95;;
53890;SDS011;41337;51.400;-2.342;2022-12-11T13:08:53;38.63;;;19.60;;
53890;SDS011;41337;51.400;-2.342;2022-12-11T13:14:04;37.70;;;19.17;;
53890;SDS011;41337;51.400;-2.342;2022-12-11T13:19:31;38.63;;;19.02;;
53890;SDS011;41337;51.400;-2.342;2022-12-11T13:24:44;38.15;;;19.50;;
53890;SDS011;41337;51.400;-2.342;2022-12-11T13:30:21;61.75;;;24.95;;
53890;SDS011;41337;51.400;-2.342;2022-12-11T13:35:24;53.40;;;21.98;;
53890;SDS011;41337;51.400;-2.342;2022-12-11T13:40:26;82.35;;;35.00;;
53890;SDS011;41337;51.400;-2.342;2022-12-11T13:50:45;61.17;;;26.38;;
53890;SDS011;41337;51.400;-2.342;2022-12-11T14:01:32;107.53;;;41.13;;
53890;SDS011;41337;51.400;-2.342;2022-12-11T14:11:39;71.30;;;27.60;;
53890;SDS011;41337;51.400;-2.342;2022-12-11T14:16:46;56.85;;;25.17;;
53890;SDS011;41337;51.400;-2.342;2022-12-11T14:21:59;57.35;;;23.67;;
53890;SDS011;41337;51.400;-2.342;2022-12-11T14:27:02;46.88;;;20.95;;
53890;SDS011;41337;51.400;-2.342;2022-12-11T14:32:04;63.20;;;26.23;;
53890;SDS011;41337;51.400;-2.342;2022-12-11T14:37:10;65.32;;;25.75;;
53890;SDS011;41337;51.400;-2.342;2022-12-11T14:42:22;62.30;;;25.10;;
53890;SDS011;41337;51.400;-2.342;2022-12-11T14:47:31;54.92;;;24.48;;
53890;SDS011;41337;51.400;-2.342;2022-12-11T14:52:47;56.92;;;22.00;;
53890;SDS011;41337;51.400;-2.342;2022-12-11T14:58:04;57.75;;;23.83;;
53890;SDS011;41337;51.400;-2.342;2022-12-11T15:03:20;65.68;;;24.63;;
53890;SDS011;41337;51.400;-2.342;2022-12-11T15:08:32;50.95;;;22.27;;
53890;SDS011;41337;51.400;-2.342;2022-12-11T15:13:38;47.92;;;21.13;;
53890;SDS011;41337;51.400;-2.342;2022-12-11T15:18:57;44.58;;;21.30;;
53890;SDS011;41337;51.400;-2.342;2022-12-11T15:24:04;51.97;;;23.88;;
53890;SDS011;41337;51.400;-2.342;2022-12-11T15:29:22;48.80;;;21.90;;
53890;SDS011;41337;51.400;-2.342;2022-12-11T15:34:30;56.42;;;25.23;;
53890;SDS011;41337;51.400;-2.342;2022-12-11T15:39:35;51.40;;;22.15;;
53890;SDS011;41337;51.400;-2.342;2022-12-11T15:44:42;44.08;;;19.20;;
53890;SDS011;41337;51.400;-2.342;2022-12-11T15:49:43;43.58;;;20.23;;
53890;SDS011;41337;51.400;-2.342;2022-12-11T15:54:44;42.83;;;19.58;;
53890;SDS011;41337;51.400;-2.342;2022-12-11T15:59:45;42.33;;;18.25;;
53890;SDS011;41337;51.400;-2.342;2022-12-11T16:04:53;43.93;;;19.00;;
53890;SDS011;41337;51.400;-2.342;2022-12-11T16:09:54;41.03;;;18.13;;
53890;SDS011;41337;51.400;-2.342;2022-12-11T16:14:55;49.00;;;19.02;;
53890;SDS011;41337;51.400;-2.342;2022-12-11T16:19:56;39.25;;;18.33;;
53890;SDS011;41337;51.400;-2.342;2022-12-11T16:24:56;46.53;;;19.10;;
53890;SDS011;41337;51.400;-2.342;2022-12-11T16:29:57;42.67;;;17.92;;
53890;SDS011;41337;51.400;-2.342;2022-12-11T16:34:58;46.47;;;19.63;;
53890;SDS011;41337;51.400;-2.342;2022-12-11T16:40:00;38.72;;;18.40;;
53890;SDS011;41337;51.400;-2.342;2022-12-11T16:45:04;46.17;;;21.83;;
53890;SDS011;41337;51.400;-2.342;2022-12-11T16:50:18;33.80;;;14.38;;
53890;SDS011;41337;51.400;-2.342;2022-12-11T16:55:19;33.63;;;14.55;;
53890;SDS011;41337;51.400;-2.342;2022-12-11T17:00:21;38.78;;;15.63;;
53890;SDS011;41337;51.400;-2.342;2022-12-11T17:05:22;40.35;;;18.17;;
53890;SDS011;41337;51.400;-2.342;2022-12-11T17:10:24;37.53;;;17.08;;
53890;SDS011;41337;51.400;-2.342;2022-12-11T17:15:24;82.00;;;33.40;;
53890;SDS011;41337;51.400;-2.342;2022-12-11T17:20:25;136.63;;;55.42;;
53890;SDS011;41337;51.400;-2.342;2022-12-11T17:25:26;62.33;;;26.33;;
53890;SDS011;41337;51.400;-2.342;2022-12-11T17:30:27;37.83;;;17.98;;
53890;SDS011;41337;51.400;-2.342;2022-12-11T17:35:28;73.53;;;29.52;;
53890;SDS011;41337;51.400;-2.342;2022-12-11T17:40:32;53.13;;;23.98;;
53890;SDS011;41337;51.400;-2.342;2022-12-11T17:45:39;49.65;;;20.75;;
53890;SDS011;41337;51.400;-2.342;2022-12-11T17:50:47;47.95;;;20.50;;
53890;SDS011;41337;51.400;-2.342;2022-12-11T17:55:53;39.38;;;18.10;;
53890;SDS011;41337;51.400;-2.342;2022-12-11T18:00:54;36.55;;;18.00;;
53890;SDS011;41337;51.400;-2.342;2022-12-11T18:06:01;36.83;;;16.05;;
53890;SDS011;41337;51.400;-2.342;2022-12-11T18:11:17;30.05;;;13.68;;
53890;SDS011;41337;51.400;-2.342;2022-12-11T18:16:26;30.60;;;14.77;;
53890;SDS011;41337;51.400;-2.342;2022-12-11T18:21:34;35.88;;;15.85;;
53890;SDS011;41337;51.400;-2.342;2022-12-11T18:26:39;35.33;;;18.20;;
53890;SDS011;41337;51.400;-2.342;2022-12-11T18:31:44;46.03;;;22.52;;
53890;SDS011;41337;51.400;-2.342;2022-12-11T18:36:44;47.58;;;21.90;;
53890;SDS011;41337;51.400;-2.342;2022-12-11T18:41:45;55.33;;;23.80;;
53890;SDS011;41337;51.400;-2.342;2022-12-11T18:46:47;65.47;;;27.27;;
53890;SDS011;41337;51.400;-2.342;2022-12-11T18:51:54;76.47;;;32.70;;
53890;SDS011;41337;51.400;-2.342;2022-12-11T18:56:54;84.38;;;34.10;;
53890;SDS011;41337;51.400;-2.342;2022-12-11T19:01:55;99.25;;;40.55;;
53890;SDS011;41337;51.400;-2.342;2022-12-11T19:06:58;70.60;;;30.05;;
53890;SDS011;41337;51.400;-2.342;2022-12-11T19:12:00;54.05;;;25.80;;
53890;SDS011;41337;51.400;-2.342;2022-12-11T19:17:01;45.53;;;22.63;;
53890;SDS011;41337;51.400;-2.342;2022-12-11T19:22:02;30.67;;;15.48;;
53890;SDS011;41337;51.400;-2.342;2022-12-11T19:27:03;27.60;;;13.57;;
53890;SDS011;41337;51.400;-2.342;2022-12-11T19:32:08;26.25;;;13.20;;
53890;SDS011;41337;51.400;-2.342;2022-12-11T19:37:09;33.35;;;18.60;;
53890;SDS011;41337;51.400;-2.342;2022-12-11T19:42:10;26.83;;;13.75;;
53890;SDS011;41337;51.400;-2.342;2022-12-11T19:47:11;28.17;;;14.27;;
53890;SDS011;41337;51.400;-2.342;2022-12-11T19:52:11;26.13;;;13.63;;
53890;SDS011;41337;51.400;-2.342;2022-12-11T19:57:12;31.98;;;16.58;;
53890;SDS011;41337;51.400;-2.342;2022-12-11T20:02:13;36.75;;;17.25;;
53890;SDS011;41337;51.400;-2.342;2022-12-11T20:07:14;33.80;;;15.60;;
53890;SDS011;41337;51.400;-2.342;2022-12-11T20:12:15;40.20;;;17.25;;
53890;SDS011;41337;51.400;-2.342;2022-12-11T20:17:16;39.83;;;18.23;;
53890;SDS011;41337;51.400;-2.342;2022-12-11T20:22:17;49.50;;;21.20;;
53890;SDS011;41337;51.400;-2.342;2022-12-11T20:27:17;43.00;;;20.20;;
53890;SDS011;41337;51.400;-2.342;2022-12-11T20:32:18;39.65;;;17.55;;
53890;SDS011;41337;51.400;-2.342;2022-12-11T20:37:19;38.65;;;15.85;;
53890;SDS011;41337;51.400;-2.342;2022-12-11T20:42:20;32.35;;;15.57;;
53890;SDS011;41337;51.400;-2.342;2022-12-11T20:47:21;32.63;;;15.18;;
53890;SDS011;41337;51.400;-2.342;2022-12-11T20:52:22;32.78;;;15.98;;
53890;SDS011;41337;51.400;-2.342;2022-12-11T20:57:29;31.02;;;15.40;;
53890;SDS011;41337;51.400;-2.342;2022-12-11T21:02:29;28.50;;;14.25;;
53890;SDS011;41337;51.400;-2.342;2022-12-11T21:07:30;26.25;;;13.23;;
53890;SDS011;41337;51.400;-2.342;2022-12-11T21:12:31;35.58;;;18.70;;
53890;SDS011;41337;51.400;-2.342;2022-12-11T21:17:33;30.90;;;16.90;;
53890;SDS011;41337;51.400;-2.342;2022-12-11T21:22:34;24.02;;;14.13;;
53890;SDS011;41337;51.400;-2.342;2022-12-11T21:27:35;19.17;;;10.90;;
53890;SDS011;41337;51.400;-2.342;2022-12-11T21:32:36;24.90;;;12.57;;
53890;SDS011;41337;51.400;-2.342;2022-12-11T21:37:38;19.30;;;9.88;;
53890;SDS011;41337;51.400;-2.342;2022-12-11T21:42:44;19.45;;;12.15;;
53890;SDS011;41337;51.400;-2.342;2022-12-11T21:47:45;21.92;;;11.00;;
53890;SDS011;41337;51.400;-2.342;2022-12-11T21:52:45;20.63;;;10.85;;
53890;SDS011;41337;51.400;-2.342;2022-12-11T21:57:46;20.58;;;11.40;;
53890;SDS011;41337;51.400;-2.342;2022-12-11T22:02:48;20.70;;;10.65;;
53890;SDS011;41337;51.400;-2.342;2022-12-11T22:07:49;17.17;;;9.27;;
53890;SDS011;41337;51.400;-2.342;2022-12-11T22:12:49;18.60;;;9.55;;
53890;SDS011;41337;51.400;-2.342;2022-12-11T22:17:50;23.25;;;11.52;;
53890;SDS011;41337;51.400;-2.342;2022-12-11T22:22:51;26.40;;;12.70;;
53890;SDS011;41337;51.400;-2.342;2022-12-11T22:27:52;29.92;;;12.77;;
53890;SDS011;41337;51.400;-2.342;2022-12-11T22:32:53;35.72;;;14.88;;
53890;SDS011;41337;51.400;-2.342;2022-12-11T22:37:53;42.90;;;15.88;;
53890;SDS011;41337;51.400;-2.342;2022-12-11T22:42:54;35.30;;;14.57;;
53890;SDS011;41337;51.400;-2.342;2022-12-11T22:47:56;45.35;;;15.80;;
53890;SDS011;41337;51.400;-2.342;2022-12-11T22:53:01;36.40;;;13.00;;
53890;SDS011;41337;51.400;-2.342;2022-12-11T22:58:02;38.88;;;14.18;;
53890;SDS011;41337;51.400;-2.342;2022-12-11T23:03:03;41.42;;;14.32;;
53890;SDS011;41337;51.400;-2.342;2022-12-11T23:08:04;34.47;;;13.95;;
53890;SDS011;41337;51.400;-2.342;2022-12-11T23:13:05;38.75;;;14.27;;
53890;SDS011;41337;51.400;-2.342;2022-12-11T23:18:06;38.80;;;13.85;;
53890;SDS011;41337;51.400;-2.342;2022-12-11T23:23:07;40.05;;;14.15;;
53890;SDS011;41337;51.400;-2.342;2022-12-11T23:28:07;39.88;;;14.48;;
53890;SDS011;41337;51.400;-2.342;2022-12-11T23:33:08;42.25;;;14.38;;
53890;SDS011;41337;51.400;-2.342;2022-12-11T23:38:09;38.78;;;13.90;;
53890;SDS011;41337;51.400;-2.342;2022-12-11T23:43:10;32.05;;;12.98;;
53890;SDS011;41337;51.400;-2.342;2022-12-11T23:48:11;33.75;;;11.80;;
53890;SDS011;41337;51.400;-2.342;2022-12-11T23:53:12;22.35;;;9.60;;
53890;SDS011;41337;51.400;-2.342;2022-12-11T23:58:13;26.15;;;10.77;;
